Time;durP1;ratioP1;P1;durP2;ratioP2;P2;SDS_P1;SDS_P2;PMS_P1;PMS_P2;Temp;Humidity;BMP_temperature;BMP_pressure;BME280_temperature;BME280_humidity;BME280_pressure;Samples;Min_cycle;Max_cycle;Signal;HPM_P1;HPM_P2
2021/04/19 00:00:26;;;;;;;41.03;18.13;;;;;;;8.97;75.46;100680.34;5017492;28;20049;-72
2021/04/19 00:02:52;;;;;;;25.85;16.02;;;;;;;8.97;75.45;100677.66;5018699;28;20061;-75
2021/04/19 00:05:20;;;;;;;31.65;16.98;;;;;;;8.94;75.77;100675.16;4998650;28;20082;-73
2021/04/19 00:07:47;;;;;;;35.42;17.70;;;;;;;8.99;75.41;100681.13;4999619;28;20412;-75
2021/04/19 00:10:18;;;;;;;31.10;17.65;;;;;;;9.00;75.08;100688.19;4998864;28;20436;-73
2021/04/19 00:12:46;;;;;;;34.55;17.55;;;;;;;8.88;75.52;100683.44;4998880;28;20506;-72
2021/04/19 00:15:18;;;;;;;37.10;18.00;;;;;;;8.85;75.56;100688.88;4998262;28;20053;-75
2021/04/19 00:17:45;;;;;;;32.92;18.65;;;;;;;8.77;75.87;100687.44;4997502;28;20058;-74
2021/04/19 00:20:12;;;;;;;31.58;18.67;;;;;;;8.67;76.05;100680.81;4998532;28;20089;-73
2021/04/19 00:22:39;;;;;;;35.42;19.88;;;;;;;8.52;76.63;100666.38;5013251;28;20438;-72
2021/04/19 00:25:07;;;;;;;33.88;19.85;;;;;;;8.54;76.60;100673.38;4996779;28;20061;-75
2021/04/19 00:27:33;;;;;;;35.53;19.45;;;;;;;8.51;76.22;100670.81;4998371;28;20101;-73
2021/04/19 00:30:00;;;;;;;33.75;20.67;;;;;;;8.43;76.79;100683.56;4998164;28;20061;-71
2021/04/19 00:32:26;;;;;;;35.50;21.55;;;;;;;8.32;77.68;100678.72;4998023;28;20058;-72
2021/04/19 00:34:53;;;;;;;36.45;21.33;;;;;;;8.24;77.70;100684.34;4997574;28;20444;-71
2021/04/19 00:37:21;;;;;;;31.85;21.20;;;;;;;8.20;77.64;100676.59;4997925;28;20054;-74
2021/04/19 00:39:47;;;;;;;35.65;22.77;;;;;;;8.23;77.75;100682.63;4998121;28;20057;-72
2021/04/19 00:42:15;;;;;;;43.45;23.45;;;;;;;8.33;77.33;100687.56;4997954;28;20050;-72
2021/04/19 00:44:41;;;;;;;40.22;22.95;;;;;;;8.35;76.90;100681.25;4996701;28;20054;-73
2021/04/19 00:47:07;;;;;;;45.03;23.10;;;;;;;8.23;77.18;100673.81;4996565;28;20108;-71
2021/04/19 00:49:34;;;;;;;39.58;22.02;;;;;;;8.25;77.63;100679.91;4997544;28;20436;-72
2021/04/19 00:52:01;;;;;;;39.65;22.58;;;;;;;8.25;77.26;100686.13;4996650;28;20058;-72
2021/04/19 00:54:27;;;;;;;44.13;23.13;;;;;;;8.23;77.58;100679.97;4996559;28;20352;-71
2021/04/19 00:56:54;;;;;;;41.55;22.52;;;;;;;8.16;77.66;100670.53;4997565;28;20096;-75
2021/04/19 00:59:20;;;;;;;38.97;22.73;;;;;;;8.19;77.78;100680.19;4996295;28;20061;-71
2021/04/19 01:01:47;;;;;;;40.50;24.08;;;;;;;8.13;77.92;100671.53;4996592;28;20429;-72
2021/04/19 01:04:14;;;;;;;41.42;22.75;;;;;;;8.31;77.18;100676.13;4997211;28;20058;-77
2021/04/19 01:06:41;;;;;;;40.20;23.70;;;;;;;8.28;77.08;100670.00;5014855;28;20077;-75
2021/04/19 01:09:08;;;;;;;46.55;24.58;;;;;;;8.20;77.56;100676.59;5016957;28;20061;-75
2021/04/19 01:11:34;;;;;;;34.85;21.77;;;;;;;8.10;77.65;100654.84;5016761;28;20058;-75
2021/04/19 01:14:01;;;;;;;39.38;23.83;;;;;;;8.06;78.47;100672.72;5016108;28;20054;-73
2021/04/19 01:16:27;;;;;;;40.95;24.02;;;;;;;7.91;78.38;100647.66;5032260;28;20072;-70
2021/04/19 01:18:53;;;;;;;40.95;23.60;;;;;;;7.94;78.14;100655.50;5015703;28;20057;-75
2021/04/19 01:21:19;;;;;;;39.33;23.80;;;;;;;8.05;78.42;100678.13;5015810;28;20088;-73
2021/04/19 01:23:46;;;;;;;40.00;24.95;;;;;;;8.09;77.93;100669.06;5016598;28;20049;-75
2021/04/19 01:26:12;;;;;;;38.50;23.33;;;;;;;8.07;78.07;100671.78;5016250;28;20459;-74
2021/04/19 01:28:50;;;;;;;42.50;24.58;;;;;;;8.10;78.12;100673.44;5016426;28;20502;-71
2021/04/19 01:31:17;;;;;;;39.45;23.90;;;;;;;8.14;77.75;100670.63;5016388;28;20333;-72
2021/04/19 01:33:44;;;;;;;44.58;24.02;;;;;;;8.16;77.68;100667.88;5016510;28;20060;-74
2021/04/19 01:36:10;;;;;;;39.08;24.30;;;;;;;8.11;77.81;100667.19;5015316;28;20072;-76
2021/04/19 01:38:37;;;;;;;45.60;24.10;;;;;;;8.02;78.06;100653.38;5016423;28;20056;-72
2021/04/19 01:41:04;;;;;;;39.80;24.17;;;;;;;8.06;78.10;100669.22;5016233;28;20136;-72
2021/04/19 01:43:31;;;;;;;39.63;23.00;;;;;;;8.06;77.73;100656.78;5016197;28;20060;-73
2021/04/19 01:45:57;;;;;;;41.10;23.52;;;;;;;7.98;78.24;100659.78;5016004;28;20149;-70
2021/04/19 01:48:25;;;;;;;42.95;23.73;;;;;;;8.01;78.15;100651.66;5015166;28;20444;-71
2021/04/19 01:50:53;;;;;;;45.08;25.38;;;;;;;7.95;78.30;100654.56;5015988;28;20057;-72
2021/04/19 01:53:19;;;;;;;39.67;23.02;;;;;;;7.88;78.68;100648.66;5031311;28;20046;-74
2021/04/19 01:55:46;;;;;;;40.10;25.15;;;;;;;7.84;78.84;100646.19;5016067;28;20045;-70
2021/04/19 01:58:16;;;;;;;41.35;23.30;;;;;;;7.91;78.69;100653.00;5031266;28;20058;-73
2021/04/19 02:00:47;;;;;;;43.55;24.95;;;;;;;7.78;78.73;100638.47;5016083;28;20057;-74
2021/04/19 02:03:28;;;;;;;43.90;24.95;;;;;;;7.83;78.74;100647.09;5015114;28;20108;-74
2021/04/19 02:06:06;;;;;;;45.25;24.98;;;;;;;7.78;78.66;100641.13;5015677;28;20356;-72
2021/04/19 02:08:38;;;;;;;43.90;24.90;;;;;;;7.84;78.74;100641.72;5015901;28;20064;-72
2021/04/19 02:11:25;;;;;;;36.53;24.98;;;;;;;7.75;79.10;100642.97;5014744;28;20092;-73
2021/04/19 02:13:58;;;;;;;53.33;25.90;;;;;;;7.67;79.42;100645.09;5015598;28;20057;-70
2021/04/19 02:16:45;;;;;;;36.38;23.50;;;;;;;7.68;79.16;100640.66;5015915;28;20112;-74
2021/04/19 02:19:33;;;;;;;41.25;23.73;;;;;;;7.68;79.26;100641.50;5015612;28;20053;-72
2021/04/19 02:22:10;;;;;;;47.13;23.50;;;;;;;7.64;79.30;100642.56;5014878;28;20057;-74
2021/04/19 02:24:41;;;;;;;42.65;23.83;;;;;;;7.61;79.42;100645.34;5015306;28;20501;-73
2021/04/19 02:27:13;;;;;;;42.42;24.08;;;;;;;7.73;78.57;100644.84;5014941;28;20066;-74
2021/04/19 02:29:48;;;;;;;43.28;25.20;;;;;;;7.68;79.13;100648.63;5015668;28;20054;-73
2021/04/19 02:32:29;;;;;;;42.70;24.55;;;;;;;7.54;79.38;100641.19;5014986;28;20399;-72
2021/04/19 02:34:58;;;;;;;;;;;;;;;7.66;79.45;100642.50;5015837;28;20440;-73
2021/04/19 02:37:29;;;;;;;45.28;25.23;;;;;;;7.58;79.35;100637.50;5015329;28;19927;-73
2021/04/19 02:39:58;;;;;;;45.05;25.90;;;;;;;7.57;79.54;100627.81;5015379;28;20054;-71
2021/04/19 02:42:26;;;;;;;46.17;26.55;;;;;;;7.66;79.48;100645.16;5015591;28;20304;-74
2021/04/19 02:44:54;;;;;;;48.30;27.55;;;;;;;7.59;79.94;100631.25;5015433;28;20042;-72
2021/04/19 02:47:22;;;;;;;43.88;26.15;;;;;;;7.61;80.01;100637.38;5015361;28;20053;-73
2021/04/19 02:49:50;;;;;;;53.60;27.50;;;;;;;7.61;79.68;100632.94;5015519;28;20100;-74
2021/04/19 02:52:17;;;;;;;44.22;27.05;;;;;;;7.65;79.34;100630.13;5015216;28;20321;-73
2021/04/19 02:54:45;;;;;;;45.58;28.15;;;;;;;7.61;79.64;100637.38;5015016;28;20050;-74
2021/04/19 02:57:32;;;;;;;48.20;28.05;;;;;;;7.61;79.77;100632.06;5015059;28;20062;-72
2021/04/19 03:00:00;;;;;;;41.00;26.30;;;;;;;7.55;79.89;100642.94;5015424;28;20061;-73
2021/04/19 03:02:30;;;;;;;48.85;29.30;;;;;;;7.47;79.96;100638.78;5015310;28;20329;-75
2021/04/19 03:04:59;;;;;;;40.55;27.88;;;;;;;7.44;80.22;100630.97;5013992;28;20038;-71
2021/04/19 03:07:33;;;;;;;48.20;28.00;;;;;;;7.45;80.36;100627.38;5030446;28;20050;-72
2021/04/19 03:10:07;;;;;;;48.92;29.27;;;;;;;7.35;80.52;100631.31;5015445;28;20081;-73
2021/04/19 03:12:35;;;;;;;46.60;28.90;;;;;;;7.32;80.71;100639.41;5014990;28;20050;-72
2021/04/19 03:15:06;;;;;;;43.08;28.05;;;;;;;7.39;80.67;100637.38;5014985;28;20138;-72
2021/04/19 03:17:33;;;;;;;47.00;28.92;;;;;;;7.38;80.31;100640.94;5014837;28;20054;-70
2021/04/19 03:20:13;;;;;;;49.28;28.35;;;;;;;7.36;80.77;100634.84;5015194;28;20395;-72
2021/04/19 03:22:42;;;;;;;55.08;29.08;;;;;;;7.26;80.67;100626.38;5015066;28;20057;-73
2021/04/19 03:25:10;;;;;;;53.10;28.13;;;;;;;7.26;81.06;100631.69;5014935;28;20053;-74
2021/04/19 03:27:39;;;;;;;48.85;29.92;;;;;;;7.13;81.65;100629.50;5015248;28;20065;-73
2021/04/19 03:30:08;;;;;;;53.40;29.75;;;;;;;7.11;81.74;100622.53;5014855;28;20057;-72
2021/04/19 03:32:41;;;;;;;58.13;31.65;;;;;;;7.04;82.25;100633.38;5015178;28;20140;-74
2021/04/19 03:35:15;;;;;;;53.70;31.40;;;;;;;7.06;82.14;100636.88;5015161;28;20054;-70
2021/04/19 03:37:44;;;;;;;50.47;31.33;;;;;;;7.03;82.26;100636.13;5015308;28;20424;-72
2021/04/19 03:40:16;;;;;;;51.58;30.95;;;;;;;7.04;82.27;100620.13;5014702;28;20050;-70
2021/04/19 03:42:45;;;;;;;57.47;31.20;;;;;;;7.02;82.11;100629.06;5014712;28;20045;-70
2021/04/19 03:45:13;;;;;;;53.40;32.17;;;;;;;6.90;82.65;100633.94;5018744;28;20049;-71
2021/04/19 03:47:41;;;;;;;50.15;30.50;;;;;;;6.88;82.81;100634.91;5019371;28;20060;-71
2021/04/19 03:50:08;;;;;;;52.20;32.40;;;;;;;6.83;83.17;100632.44;5018684;28;20054;-71
2021/04/19 03:52:43;;;;;;;52.13;32.85;;;;;;;6.87;83.12;100628.72;5018684;28;20058;-72
2021/04/19 03:55:12;;;;;;;54.10;33.08;;;;;;;6.82;83.02;100625.41;5033352;28;20053;-74
2021/04/19 03:57:41;;;;;;;55.25;32.47;;;;;;;6.73;83.66;100620.44;5018139;28;20057;-71
2021/04/19 04:00:15;;;;;;;55.13;34.28;;;;;;;6.64;84.02;100617.19;5018146;28;20405;-74
2021/04/19 04:02:45;;;;;;;54.90;35.75;;;;;;;6.54;84.50;100620.25;5017838;28;20061;-71
2021/04/19 04:05:13;;;;;;;51.63;34.35;;;;;;;6.43;84.59;100616.19;5017858;28;20394;-74
2021/04/19 04:07:40;;;;;;;54.42;34.33;;;;;;;6.41;84.64;100618.06;5017706;28;20061;-70
2021/04/19 04:10:08;;;;;;;57.05;33.35;;;;;;;6.48;84.41;100621.34;5018097;28;20050;-70
2021/04/19 04:12:36;;;;;;;60.90;33.75;;;;;;;6.45;84.38;100624.09;5017680;28;20104;-74
2021/04/19 04:15:04;;;;;;;49.85;32.40;;;;;;;6.42;84.28;100624.22;5016896;28;20054;-73
2021/04/19 04:17:30;;;;;;;56.03;32.13;;;;;;;6.44;84.29;100625.03;5010073;28;20105;-71
2021/04/19 04:19:57;;;;;;;56.83;33.40;;;;;;;6.29;84.76;100629.09;5008935;28;20078;-74
2021/04/19 04:22:23;;;;;;;58.15;33.90;;;;;;;6.21;85.09;100632.88;5008396;28;20058;-73
2021/04/19 04:24:51;;;;;;;59.35;35.03;;;;;;;6.24;84.88;100639.88;4999252;28;20058;-73
2021/04/19 04:27:17;;;;;;;60.25;35.72;;;;;;;6.11;85.24;100624.38;4997800;28;20058;-73
2021/04/19 04:29:44;;;;;;;58.20;35.47;;;;;;;6.11;85.38;100632.34;4997997;28;20057;-73
2021/04/19 04:32:10;;;;;;;52.80;34.42;;;;;;;6.07;85.41;100625.44;4998027;28;20058;-72
2021/04/19 04:34:38;;;;;;;62.33;34.90;;;;;;;6.18;85.19;100632.13;4997633;28;20525;-72
2021/04/19 04:37:06;;;;;;;51.20;34.00;;;;;;;6.06;85.60;100631.63;4997911;28;20109;-74
2021/04/19 04:39:32;;;;;;;57.35;36.13;;;;;;;6.08;85.29;100629.81;4997966;28;20058;-72
2021/04/19 04:41:59;;;;;;;57.30;34.78;;;;;;;6.17;85.50;100638.34;4997610;28;20486;-70
2021/04/19 04:44:39;;;;;;;55.47;34.60;;;;;;;6.18;84.97;100634.78;4997882;28;20054;-70
2021/04/19 04:47:20;;;;;;;56.00;33.22;;;;;;;6.17;85.26;100639.22;4997432;28;20054;-71
2021/04/19 04:50:05;;;;;;;51.03;34.85;;;;;;;6.14;85.45;100627.88;4997871;28;20398;-71
2021/04/19 04:52:38;;;;;;;64.90;36.50;;;;;;;6.08;85.43;100624.50;4997449;28;20066;-74
2021/04/19 04:55:07;;;;;;;61.45;34.17;;;;;;;6.06;85.63;100628.97;4997017;28;20443;-71
2021/04/19 04:57:34;;;;;;;56.92;33.63;;;;;;;6.08;85.32;100627.16;4997237;28;20412;-73
2021/04/19 05:00:02;;;;;;;55.88;35.13;;;;;;;6.01;85.71;100628.25;4997280;28;20058;-74
2021/04/19 05:02:30;;;;;;;58.33;35.47;;;;;;;5.98;85.59;100642.47;4997629;28;20054;-75
2021/04/19 05:04:56;;;;;;;54.60;35.22;;;;;;;5.94;85.96;100624.09;4999319;28;20081;-73
2021/04/19 05:07:23;;;;;;;58.78;35.38;;;;;;;6.05;85.62;100643.16;5016625;28;20049;-75
2021/04/19 05:09:49;;;;;;;58.55;33.53;;;;;;;6.06;85.82;100644.88;5016824;28;20058;-73
2021/04/19 05:12:16;;;;;;;59.92;35.53;;;;;;;6.02;85.65;100632.66;5016556;28;20050;-74
2021/04/19 05:15:07;;;;;;;62.25;36.00;;;;;;;6.17;85.20;100648.94;5031778;28;20054;-71
2021/04/19 05:17:33;;;;;;;56.70;35.85;;;;;;;6.07;85.36;100656.34;5016859;28;20053;-72
2021/04/19 05:19:59;;;;;;;54.92;35.80;;;;;;;6.04;86.03;100656.47;5016530;28;20371;-73
2021/04/19 05:22:26;;;;;;;62.08;35.88;;;;;;;6.12;85.25;100654.41;5031882;28;20085;-73
2021/04/19 05:24:52;;;;;;;61.47;36.97;;;;;;;6.15;85.11;100653.44;5016680;28;20065;-73
2021/04/19 05:27:18;;;;;;;64.57;35.97;;;;;;;6.13;85.21;100648.19;5016494;28;20132;-71
2021/04/19 05:29:45;;;;;;;57.22;34.45;;;;;;;6.18;85.21;100653.31;5016530;28;20053;-72
2021/04/19 05:32:13;;;;;;;55.70;34.72;;;;;;;6.11;85.44;100661.50;5031930;28;20151;-72
2021/04/19 05:34:40;;;;;;;55.25;34.70;;;;;;;6.11;85.66;100652.69;5016372;28;20049;-72
2021/04/19 05:37:07;;;;;;;58.45;34.60;;;;;;;6.09;85.59;100655.38;5015064;28;20049;-69
2021/04/19 05:39:34;;;;;;;61.00;34.65;;;;;;;6.11;85.19;100648.22;5031468;28;20351;-75
2021/04/19 05:42:02;;;;;;;65.65;36.10;;;;;;;6.03;85.58;100647.66;5031552;28;20149;-70
2021/04/19 05:44:32;;;;;;;58.33;34.63;;;;;;;6.04;85.30;100632.63;5031432;28;20371;-74
2021/04/19 05:47:01;;;;;;;60.50;37.47;;;;;;;6.13;85.24;100647.31;5013509;28;20184;-72
2021/04/19 05:49:28;;;;;;;55.80;33.75;;;;;;;6.11;84.98;100645.59;5014362;28;20100;-72
2021/04/19 05:52:03;;;;;;;57.75;34.13;;;;;;;6.05;85.15;100650.25;5015613;28;20370;-71
2021/04/19 05:54:30;;;;;;;63.85;35.88;;;;;;;5.95;86.32;100647.84;5014675;28;20045;-69
2021/04/19 05:57:08;;;;;;;55.40;35.42;;;;;;;6.08;85.48;100652.78;5015884;28;20096;-74
2021/04/19 05:59:55;;;;;;;58.80;34.40;;;;;;;6.06;85.88;100651.97;5010633;28;20053;-73
2021/04/19 06:03:00;;;;;;;60.67;35.28;;;;;;;6.07;85.45;100656.34;5014768;28;20058;-71
2021/04/19 06:05:34;;;;;;;63.60;33.33;;;;;;;6.14;85.25;100662.31;5014936;28;20050;-72
2021/04/19 06:08:01;;;;;;;58.75;35.30;;;;;;;6.16;84.78;100666.63;5014788;28;20061;-73
2021/04/19 06:10:36;;;;;;;55.53;34.20;;;;;;;6.08;85.48;100669.56;5015360;28;20088;-71
2021/04/19 06:13:04;;;;;;;63.08;35.80;;;;;;;5.98;85.56;100654.84;5030858;28;20050;-71
2021/04/19 06:15:31;;;;;;;64.22;34.90;;;;;;;6.13;85.24;100679.13;5011306;28;20050;-71
2021/04/19 06:17:59;;;;;;;58.00;33.38;;;;;;;6.07;85.10;100677.56;5015155;28;20415;-72
2021/04/19 06:20:26;;;;;;;60.83;35.65;;;;;;;6.00;85.67;100671.56;5015468;28;20052;-74
2021/04/19 06:22:53;;;;;;;59.40;35.90;;;;;;;6.02;85.81;100661.81;5010055;28;20053;-74
2021/04/19 06:25:21;;;;;;;64.60;37.30;;;;;;;6.05;85.69;100666.16;5015049;28;20129;-71
2021/04/19 06:27:48;;;;;;;60.20;36.08;;;;;;;6.03;85.55;100655.59;5015165;28;20050;-71
2021/04/19 06:30:30;;;;;;;61.70;35.92;;;;;;;5.92;85.86;100647.97;5016201;28;20124;-74
2021/04/19 06:32:57;;;;;;;63.25;36.78;;;;;;;5.97;86.14;100655.75;5017955;28;20160;-73
2021/04/19 06:35:23;;;;;;;69.45;38.03;;;;;;;6.07;85.86;100666.94;5014990;28;20076;-75
2021/04/19 06:37:54;;;;;;;71.65;39.30;;;;;;;6.11;85.76;100668.59;5015131;28;20084;-73
2021/04/19 06:40:21;;;;;;;68.47;39.72;;;;;;;6.18;85.48;100658.63;5015058;28;20379;-75
2021/04/19 06:42:47;;;;;;;68.55;40.67;;;;;;;6.18;85.23;100654.22;5015255;28;20127;-71
2021/04/19 06:45:15;;;;;;;73.60;41.10;;;;;;;6.33;85.05;100658.09;5015240;28;20056;-71
2021/04/19 06:47:42;;;;;;;67.18;39.30;;;;;;;6.41;84.39;100670.19;5015060;28;20231;-72
2021/04/19 06:50:10;;;;;;;73.70;41.38;;;;;;;6.44;84.69;100671.00;5014610;28;20451;-74
2021/04/19 06:52:39;;;;;;;71.45;42.55;;;;;;;6.51;84.13;100676.91;5014774;28;20045;-73
2021/04/19 06:55:06;;;;;;;69.20;43.15;;;;;;;6.56;84.45;100668.78;5014963;28;20052;-70
2021/04/19 06:57:35;;;;;;;70.50;42.65;;;;;;;6.70;83.70;100665.66;5012099;28;20478;-70
2021/04/19 07:00:06;;;;;;;69.13;42.15;;;;;;;6.79;82.94;100666.19;5014838;28;20088;-72
2021/04/19 07:02:37;;;;;;;69.25;42.75;;;;;;;6.87;82.26;100673.84;5014669;28;20049;-73
2021/04/19 07:05:04;;;;;;;86.40;46.30;;;;;;;6.80;82.99;100672.34;5013628;28;20450;-73
2021/04/19 07:07:34;;;;;;;83.07;45.45;;;;;;;6.78;83.12;100668.88;5014743;28;20124;-69
2021/04/19 07:10:05;;;;;;;91.20;48.95;;;;;;;6.63;83.54;100660.56;5014891;28;20057;-70
2021/04/19 07:12:36;;;;;;;84.35;46.10;;;;;;;6.73;83.34;100655.78;5014695;28;20049;-71
2021/04/19 07:15:04;;;;;;;81.30;46.45;;;;;;;6.81;83.40;100655.50;5014554;28;20056;-75
2021/04/19 07:17:31;;;;;;;88.00;47.55;;;;;;;6.76;82.79;100665.44;5014976;28;20123;-71
2021/04/19 07:19:58;;;;;;;93.93;49.38;;;;;;;6.71;83.61;100654.97;5018489;28;20428;-71
2021/04/19 07:22:26;;;;;;;89.25;50.00;;;;;;;6.68;83.24;100656.88;5019604;28;20065;-70
2021/04/19 07:24:52;;;;;;;84.80;47.80;;;;;;;6.63;83.74;100659.69;5018704;28;20054;-72
2021/04/19 07:27:19;;;;;;;87.07;47.15;;;;;;;6.74;83.24;100659.28;5018981;28;20380;-69
2021/04/19 07:29:46;;;;;;;87.40;47.20;;;;;;;6.71;83.17;100654.97;5018529;28;20080;-71
2021/04/19 07:32:14;;;;;;;77.05;44.90;;;;;;;6.64;82.92;100646.38;5001421;28;20064;-71
2021/04/19 07:34:40;;;;;;;83.38;47.25;;;;;;;6.76;83.32;100646.84;5018361;28;20073;-74
2021/04/19 07:37:11;;;;;;;80.95;44.05;;;;;;;7.04;82.65;100654.63;5018817;28;20057;-75
2021/04/19 07:39:39;;;;;;;76.93;44.80;;;;;;;7.17;81.72;100643.53;5015314;28;20052;-75
2021/04/19 07:42:08;;;;;;;72.95;42.00;;;;;;;7.15;81.06;100651.56;5018207;28;20061;-74
2021/04/19 07:44:36;;;;;;;80.40;42.97;;;;;;;7.25;80.83;100646.75;5012942;28;20046;-72
2021/04/19 07:47:32;;;;;;;76.65;44.13;;;;;;;7.15;81.07;100648.03;5017153;28;20069;-74
2021/04/19 07:50:06;;;;;;;81.65;44.63;;;;;;;7.11;81.26;100649.06;5033291;28;20050;-75
2021/04/19 07:52:57;;;;;;;80.78;43.45;;;;;;;7.27;80.83;100644.03;5018113;28;20049;-74
2021/04/19 07:55:33;;;;;;;74.97;42.42;;;;;;;7.19;80.77;100639.91;5016144;28;20049;-75
2021/04/19 07:58:17;;;;;;;82.78;44.53;;;;;;;7.34;80.52;100641.09;5016669;28;20054;-76
2021/04/19 08:00:43;;;;;;;77.68;44.15;;;;;;;7.28;80.24;100640.44;5013380;28;20053;-73
2021/04/19 08:03:19;;;;;;;75.18;44.05;;;;;;;7.20;80.74;100638.97;5017562;28;20054;-76
2021/04/19 08:05:55;;;;;;;75.55;44.05;;;;;;;7.24;80.88;100655.63;5015188;28;20042;-74
2021/04/19 08:08:29;;;;;;;74.90;43.15;;;;;;;7.22;80.78;100653.97;5039770;28;20410;-74
2021/04/19 08:11:09;;;;;;;75.63;43.35;;;;;;;7.18;80.86;100658.53;5014970;28;20045;-75
2021/04/19 08:13:35;;;;;;;76.13;43.85;;;;;;;7.22;81.33;100652.19;5015325;28;20054;-73
2021/04/19 08:16:19;;;;;;;78.78;47.20;;;;;;;7.12;81.24;100651.69;5017294;28;20111;-74
2021/04/19 08:18:51;;;;;;;78.35;47.08;;;;;;;7.15;82.10;100648.88;5017544;28;20163;-72
2021/04/19 08:21:26;;;;;;;75.32;44.97;;;;;;;7.23;81.23;100650.41;5005243;28;20116;-74
2021/04/19 08:23:52;;;;;;;71.10;44.63;;;;;;;7.20;81.40;100648.75;5016948;28;20355;-75
2021/04/19 08:26:19;;;;;;;82.10;47.35;;;;;;;7.15;81.31;100651.56;5016992;28;20653;-74
2021/04/19 08:28:49;;;;;;;87.88;45.47;;;;;;;7.33;81.42;100650.00;5032593;28;20042;-75
2021/04/19 08:31:17;;;;;;;80.87;48.00;;;;;;;7.23;81.39;100653.91;5014239;28;20100;-73
2021/04/19 08:33:44;;;;;;;75.85;48.83;;;;;;;7.08;81.33;100647.41;5017271;28;20046;-70
2021/04/19 08:36:14;;;;;;;87.53;47.33;;;;;;;7.07;81.99;100659.81;5016623;28;20054;-73
2021/04/19 08:38:42;;;;;;;84.40;49.50;;;;;;;7.16;81.56;100655.09;5017416;28;20057;-74
2021/04/19 08:41:10;;;;;;;81.32;47.67;;;;;;;7.21;81.45;100645.16;5032441;28;20112;-70
2021/04/19 08:43:38;;;;;;;84.28;47.30;;;;;;;7.29;81.36;100647.50;5014444;28;20046;-72
2021/04/19 08:46:07;;;;;;;85.07;47.07;;;;;;;7.51;80.58;100647.50;5017162;28;20100;-71
2021/04/19 08:48:34;;;;;;;79.03;45.75;;;;;;;7.67;80.38;100637.13;5016716;28;20138;-71
2021/04/19 08:51:02;;;;;;;81.10;46.92;;;;;;;7.78;78.98;100619.88;5016699;28;20073;-74
2021/04/19 08:53:28;;;;;;;81.32;46.38;;;;;;;7.67;80.16;100644.25;5015690;28;20320;-74
2021/04/19 08:55:58;;;;;;;77.47;46.10;;;;;;;7.80;79.45;100642.78;5029138;28;20046;-74
2021/04/19 08:58:25;;;;;;;72.70;44.65;;;;;;;7.75;79.06;100637.66;5016692;28;20054;-72
2021/04/19 09:00:53;;;;;;;78.68;44.70;;;;;;;7.69;79.13;100645.88;5016883;28;20060;-72
2021/04/19 09:03:21;;;;;;;76.60;45.58;;;;;;;7.42;79.75;100642.56;5016576;28;20423;-72
2021/04/19 09:05:48;;;;;;;76.75;44.08;;;;;;;7.55;79.77;100653.56;5016992;28;20076;-72
2021/04/19 09:08:16;;;;;;;77.50;45.20;;;;;;;7.60;80.15;100644.50;5016503;28;20045;-71
2021/04/19 09:10:57;;;;;;;82.20;46.10;;;;;;;7.42;80.14;100650.53;5016494;28;20054;-71
2021/04/19 09:13:34;;;;;;;;;;;;;;;7.48;80.36;100642.31;5015580;28;20042;-70
2021/04/19 09:16:19;;;;;;;82.97;45.40;;;;;;;7.62;80.04;100647.06;5006691;28;19926;-74
2021/04/19 09:18:55;;;;;;;75.03;45.67;;;;;;;7.69;79.46;100635.25;5014306;28;20047;-71
2021/04/19 09:21:50;;;;;;;81.55;46.25;;;;;;;7.75;80.50;100652.75;5014233;28;20420;-71
2021/04/19 09:24:22;;;;;;;77.70;46.55;;;;;;;7.85;81.49;100634.63;5013729;28;20427;-73
2021/04/19 09:26:54;;;;;;;79.28;43.75;;;;;;;8.02;80.17;100650.72;5016002;28;20050;-72
2021/04/19 09:29:30;;;;;;;75.60;43.17;;;;;;;8.03;79.24;100648.94;5016134;28;20491;-73
2021/04/19 09:32:18;;;;;;;77.32;45.00;;;;;;;7.89;80.84;100641.53;5010823;28;20046;-73
2021/04/19 09:34:47;;;;;;;75.28;43.17;;;;;;;8.03;79.72;100648.94;5029987;28;20045;-72
2021/04/19 09:37:22;;;;;;;69.80;42.97;;;;;;;8.01;79.54;100651.66;5016101;28;20050;-72
2021/04/19 09:39:52;;;;;;;79.75;45.20;;;;;;;8.33;80.23;100645.88;5015938;28;20050;-75
2021/04/19 09:42:58;;;;;;;84.95;45.58;;;;;;;8.53;79.39;100636.19;5012547;28;20609;-73
2021/04/19 09:45:51;;;;;;;70.00;41.53;;;;;;;8.91;76.53;100630.03;5014784;28;20104;-73
2021/04/19 09:48:39;;;;;;;73.22;42.33;;;;;;;9.00;76.31;100640.28;5013060;28;20100;-73
2021/04/19 09:51:13;;;;;;;69.53;41.65;;;;;;;8.77;75.43;100626.22;5016156;28;20057;-76
2021/04/19 09:53:56;;;;;;;73.53;43.13;;;;;;;8.94;76.96;100636.09;5013690;28;20049;-73
2021/04/19 09:56:27;;;;;;;73.18;43.03;;;;;;;9.01;77.00;100635.78;5013822;28;20439;-76
2021/04/19 09:58:55;;;;;;;65.97;41.28;;;;;;;9.24;75.54;100635.59;5015729;28;20419;-75
2021/04/19 10:01:22;;;;;;;67.60;41.45;;;;;;;9.51;75.11;100629.84;5015845;28;20050;-74
2021/04/19 10:03:50;;;;;;;59.28;39.70;;;;;;;9.82;72.76;100626.59;5015359;28;20049;-73
2021/04/19 10:06:30;;;;;;;62.13;40.08;;;;;;;10.17;71.71;100626.59;5015770;28;20053;-73
2021/04/19 10:09:00;;;;;;;70.03;41.85;;;;;;;10.31;71.08;100626.72;5015455;28;20050;-74
2021/04/19 10:11:33;;;;;;;68.30;42.58;;;;;;;10.48;70.59;100622.34;5015667;28;20050;-74
2021/04/19 10:14:07;;;;;;;64.43;38.63;;;;;;;10.69;69.06;100628.31;5013209;28;20092;-71
2021/04/19 10:16:40;;;;;;;65.28;39.25;;;;;;;10.75;69.31;100619.13;5030559;28;20355;-74
2021/04/19 10:19:06;;;;;;;68.28;39.72;;;;;;;10.73;68.15;100619.22;5015313;28;20088;-72
2021/04/19 10:21:32;;;;;;;69.05;39.00;;;;;;;10.48;68.84;100619.69;5015462;28;20053;-75
2021/04/19 10:23:59;;;;;;;69.88;39.08;;;;;;;10.48;69.31;100621.47;5014227;28;20046;-71
2021/04/19 10:26:36;;;;;;;69.30;41.22;;;;;;;10.52;69.81;100623.91;5013145;28;20057;-75
2021/04/19 10:29:15;;;;;;;71.45;41.83;;;;;;;10.60;70.40;100623.50;5015213;28;20050;-74
2021/04/19 10:31:53;;;;;;;77.75;42.47;;;;;;;10.48;70.35;100625.03;5015809;28;20333;-75
2021/04/19 10:34:22;;;;;;;72.00;41.78;;;;;;;10.32;70.45;100631.16;5015298;28;20049;-74
2021/04/19 10:36:51;;;;;;;80.70;43.97;;;;;;;10.03;71.44;100632.66;5014417;28;20057;-70
2021/04/19 10:39:21;;;;;;;74.25;41.85;;;;;;;10.01;71.84;100621.19;5015567;28;20053;-73
2021/04/19 10:41:49;;;;;;;77.70;44.35;;;;;;;9.97;71.76;100619.63;5015802;28;20053;-74
2021/04/19 10:44:18;;;;;;;72.63;41.33;;;;;;;9.97;71.95;100624.97;5015251;28;20053;-72
2021/04/19 10:46:45;;;;;;;70.57;42.10;;;;;;;10.09;71.16;100618.13;5015685;28;20057;-71
2021/04/19 10:49:22;;;;;;;64.13;40.78;;;;;;;10.26;70.61;100620.78;5015570;28;20065;-68
2021/04/19 10:52:00;;;;;;;73.75;41.58;;;;;;;9.94;71.83;100623.31;5015209;28;20077;-69
2021/04/19 10:54:36;;;;;;;65.70;40.58;;;;;;;9.91;72.05;100619.00;5018412;28;20061;-72
2021/04/19 10:57:06;;;;;;;76.20;40.58;;;;;;;9.99;71.72;100610.59;5019720;28;20061;-73
2021/04/19 10:59:33;;;;;;;65.28;39.55;;;;;;;9.95;71.64;100609.03;5019484;28;20115;-73
2021/04/19 11:02:08;;;;;;;70.82;41.13;;;;;;;9.91;71.87;100610.13;5019846;28;20184;-69
2021/04/19 11:04:37;;;;;;;66.97;38.80;;;;;;;9.95;72.33;100608.16;5020091;28;20060;-71
2021/04/19 11:07:23;;;;;;;69.78;39.85;;;;;;;9.92;72.42;100612.72;5020442;28;20057;-71
2021/04/19 11:10:16;;;;;;;68.05;40.88;;;;;;;9.77;72.93;100610.84;5021397;28;20058;-70
2021/04/19 11:13:06;;;;;;;72.40;39.47;;;;;;;9.74;72.81;100613.63;5018821;28;20052;-73
2021/04/19 11:15:38;;;;;;;73.10;41.42;;;;;;;9.65;73.12;100612.31;5019870;28;20303;-72
2021/04/19 11:18:21;;;;;;;73.68;39.92;;;;;;;9.74;72.67;100609.19;5019523;28;20485;-71
2021/04/19 11:20:49;;;;;;;67.75;40.38;;;;;;;9.80;72.42;100613.34;5019148;28;20056;-71
2021/04/19 11:23:26;;;;;;;65.55;39.40;;;;;;;9.81;72.63;100612.38;5017936;28;20057;-71
2021/04/19 11:25:54;;;;;;;67.57;38.90;;;;;;;9.95;71.93;100611.69;5018937;28;20448;-74
2021/04/19 11:28:29;;;;;;;68.88;39.60;;;;;;;9.83;72.12;100614.97;5018820;28;20058;-72
2021/04/19 11:30:57;;;;;;;62.25;37.58;;;;;;;9.68;72.97;100613.94;5018818;28;20060;-74
2021/04/19 11:33:28;;;;;;;63.28;39.33;;;;;;;9.53;73.71;100626.25;5018902;28;20056;-73